sensor_id;sensor_type;location;lat;lon;timestamp;temperature;humidity
1259;DHT22;619;51.472;6.628;2022-09-13T00:01:05;24.40;75.10
1259;DHT22;619;51.472;6.628;2022-09-13T00:03:35;24.40;75.00
1259;DHT22;619;51.472;6.628;2022-09-13T00:06:15;24.40;75.00
1259;DHT22;619;51.472;6.628;2022-09-13T00:08:44;24.40;75.00
1259;DHT22;619;51.472;6.628;2022-09-13T00:11:24;24.40;74.80
1259;DHT22;619;51.472;6.628;2022-09-13T00:13:50;24.40;74.60
1259;DHT22;619;51.472;6.628;2022-09-13T00:16:18;24.40;74.50
1259;DHT22;619;51.472;6.628;2022-09-13T00:18:45;24.50;74.50
1259;DHT22;619;51.472;6.628;2022-09-13T00:21:17;24.40;74.30
1259;DHT22;619;51.472;6.628;2022-09-13T00:23:45;24.50;74.30
1259;DHT22;619;51.472;6.628;2022-09-13T00:26:17;24.40;74.20
1259;DHT22;619;51.472;6.628;2022-09-13T00:28:43;24.40;74.20
1259;DHT22;619;51.472;6.628;2022-09-13T00:31:12;24.40;74.20
1259;DHT22;619;51.472;6.628;2022-09-13T00:33:40;24.40;74.10
1259;DHT22;619;51.472;6.628;2022-09-13T00:36:11;24.40;74.10
1259;DHT22;619;51.472;6.628;2022-09-13T00:38:40;24.50;74.30
1259;DHT22;619;51.472;6.628;2022-09-13T00:41:10;24.40;74.10
1259;DHT22;619;51.472;6.628;2022-09-13T00:46:07;24.40;73.90
1259;DHT22;619;51.472;6.628;2022-09-13T00:48:33;24.40;73.70
1259;DHT22;619;51.472;6.628;2022-09-13T00:51:00;24.40;73.70
1259;DHT22;619;51.472;6.628;2022-09-13T00:53:31;24.40;73.80
1259;DHT22;619;51.472;6.628;2022-09-13T00:55:59;24.30;73.70
1259;DHT22;619;51.472;6.628;2022-09-13T00:58:49;24.30;73.70
1259;DHT22;619;51.472;6.628;2022-09-13T01:01:22;24.40;73.90
1259;DHT22;619;51.472;6.628;2022-09-13T01:03:50;24.30;73.80
1259;DHT22;619;51.472;6.628;2022-09-13T01:06:21;24.40;74.00
1259;DHT22;619;51.472;6.628;2022-09-13T01:08:50;24.40;74.20
1259;DHT22;619;51.472;6.628;2022-09-13T01:11:27;24.30;74.00
1259;DHT22;619;51.472;6.628;2022-09-13T01:13:54;24.30;73.90
1259;DHT22;619;51.472;6.628;2022-09-13T01:16:24;24.30;74.00
1259;DHT22;619;51.472;6.628;2022-09-13T01:18:50;24.20;73.90
1259;DHT22;619;51.472;6.628;2022-09-13T01:24:32;24.20;74.10
1259;DHT22;619;51.472;6.628;2022-09-13T01:37:57;24.10;74.50
1259;DHT22;619;51.472;6.628;2022-09-13T01:46:10;24.10;74.50
1259;DHT22;619;51.472;6.628;2022-09-13T01:51:30;24.10;74.40
1259;DHT22;619;51.472;6.628;2022-09-13T01:57:12;24.20;74.60
1259;DHT22;619;51.472;6.628;2022-09-13T02:04:55;24.20;74.50
1259;DHT22;619;51.472;6.628;2022-09-13T02:07:43;24.20;74.50
1259;DHT22;619;51.472;6.628;2022-09-13T02:10:46;24.20;74.50
1259;DHT22;619;51.472;6.628;2022-09-13T02:13:20;24.20;74.50
1259;DHT22;619;51.472;6.628;2022-09-13T02:15:51;24.20;74.50
1259;DHT22;619;51.472;6.628;2022-09-13T02:18:25;24.20;74.50
1259;DHT22;619;51.472;6.628;2022-09-13T02:21:01;24.20;74.50
1259;DHT22;619;51.472;6.628;2022-09-13T02:23:36;24.20;74.50
1259;DHT22;619;51.472;6.628;2022-09-13T02:26:06;24.30;74.80
1259;DHT22;619;51.472;6.628;2022-09-13T02:28:42;24.20;74.60
1259;DHT22;619;51.472;6.628;2022-09-13T02:31:11;24.30;75.60
1259;DHT22;619;51.472;6.628;2022-09-13T02:33:59;24.30;74.90
1259;DHT22;619;51.472;6.628;2022-09-13T02:36:34;24.40;74.80
1259;DHT22;619;51.472;6.628;2022-09-13T02:39:02;24.40;74.50
1259;DHT22;619;51.472;6.628;2022-09-13T02:41:37;24.50;74.40
1259;DHT22;619;51.472;6.628;2022-09-13T02:44:31;24.50;74.50
1259;DHT22;619;51.472;6.628;2022-09-13T02:52:19;24.40;74.40
1259;DHT22;619;51.472;6.628;2022-09-13T02:57:37;24.40;74.30
1259;DHT22;619;51.472;6.628;2022-09-13T03:00:05;24.40;74.30
1259;DHT22;619;51.472;6.628;2022-09-13T03:02:32;24.40;74.30
1259;DHT22;619;51.472;6.628;2022-09-13T03:04:59;24.40;74.40
1259;DHT22;619;51.472;6.628;2022-09-13T03:07:30;24.40;74.30
1259;DHT22;619;51.472;6.628;2022-09-13T03:10:03;24.40;74.50
1259;DHT22;619;51.472;6.628;2022-09-13T03:12:54;24.40;74.80
1259;DHT22;619;51.472;6.628;2022-09-13T03:24:38;24.30;76.00
1259;DHT22;619;51.472;6.628;2022-09-13T03:30:06;24.30;76.60
1259;DHT22;619;51.472;6.628;2022-09-13T03:45:53;24.10;77.90
1259;DHT22;619;51.472;6.628;2022-09-13T03:48:21;24.10;78.00
1259;DHT22;619;51.472;6.628;2022-09-13T03:50:47;24.10;78.10
1259;DHT22;619;51.472;6.628;2022-09-13T03:53:18;24.10;78.40
1259;DHT22;619;51.472;6.628;2022-09-13T03:55:45;24.10;78.50
1259;DHT22;619;51.472;6.628;2022-09-13T03:58:18;24.10;78.50
1259;DHT22;619;51.472;6.628;2022-09-13T04:00:51;24.10;78.50
1259;DHT22;619;51.472;6.628;2022-09-13T04:03:18;24.10;78.50
1259;DHT22;619;51.472;6.628;2022-09-13T04:05:45;24.10;78.50
1259;DHT22;619;51.472;6.628;2022-09-13T04:08:10;24.10;78.50
1259;DHT22;619;51.472;6.628;2022-09-13T04:10:38;24.10;78.70
1259;DHT22;619;51.472;6.628;2022-09-13T04:13:04;24.10;78.80
1259;DHT22;619;51.472;6.628;2022-09-13T04:15:30;24.10;78.90
1259;DHT22;619;51.472;6.628;2022-09-13T04:17:56;24.10;78.90
1259;DHT22;619;51.472;6.628;2022-09-13T04:20:23;24.10;78.80
1259;DHT22;619;51.472;6.628;2022-09-13T04:22:58;24.10;78.80
1259;DHT22;619;51.472;6.628;2022-09-13T04:25:24;24.10;78.90
1259;DHT22;619;51.472;6.628;2022-09-13T04:27:58;24.20;79.00
1259;DHT22;619;51.472;6.628;2022-09-13T04:30:25;24.10;78.90
1259;DHT22;619;51.472;6.628;2022-09-13T04:32:53;24.10;79.00
1259;DHT22;619;51.472;6.628;2022-09-13T04:35:24;24.20;79.40
1259;DHT22;619;51.472;6.628;2022-09-13T04:37:49;24.10;79.20
1259;DHT22;619;51.472;6.628;2022-09-13T04:40:15;24.10;79.10
1259;DHT22;619;51.472;6.628;2022-09-13T04:42:43;24.10;79.10
1259;DHT22;619;51.472;6.628;2022-09-13T04:45:12;24.10;79.10
1259;DHT22;619;51.472;6.628;2022-09-13T04:47:37;24.10;79.00
1259;DHT22;619;51.472;6.628;2022-09-13T04:50:03;24.10;79.20
1259;DHT22;619;51.472;6.628;2022-09-13T04:52:32;24.10;79.30
1259;DHT22;619;51.472;6.628;2022-09-13T04:54:57;24.10;79.30
1259;DHT22;619;51.472;6.628;2022-09-13T04:57:29;24.10;79.30
1259;DHT22;619;51.472;6.628;2022-09-13T04:59:54;24.10;79.50
1259;DHT22;619;51.472;6.628;2022-09-13T05:02:22;24.10;79.70
1259;DHT22;619;51.472;6.628;2022-09-13T05:04:48;24.10;79.90
1259;DHT22;619;51.472;6.628;2022-09-13T05:07:16;24.10;79.80
1259;DHT22;619;51.472;6.628;2022-09-13T05:09:44;24.10;79.90
1259;DHT22;619;51.472;6.628;2022-09-13T05:12:09;24.10;79.80
1259;DHT22;619;51.472;6.628;2022-09-13T05:14:40;24.10;80.00
1259;DHT22;619;51.472;6.628;2022-09-13T05:17:09;24.10;80.10
1259;DHT22;619;51.472;6.628;2022-09-13T05:19:37;24.10;80.10
1259;DHT22;619;51.472;6.628;2022-09-13T05:22:02;24.10;79.90
1259;DHT22;619;51.472;6.628;2022-09-13T05:24:28;24.10;80.00
1259;DHT22;619;51.472;6.628;2022-09-13T05:26:53;24.10;80.10
1259;DHT22;619;51.472;6.628;2022-09-13T05:29:19;24.10;80.20
1259;DHT22;619;51.472;6.628;2022-09-13T05:31:45;24.10;80.20
1259;DHT22;619;51.472;6.628;2022-09-13T05:34:15;24.20;80.20
1259;DHT22;619;51.472;6.628;2022-09-13T05:36:44;24.20;80.00
1259;DHT22;619;51.472;6.628;2022-09-13T05:39:13;24.20;79.90
1259;DHT22;619;51.472;6.628;2022-09-13T05:41:42;24.20;79.70
1259;DHT22;619;51.472;6.628;2022-09-13T05:44:07;24.20;79.90
1259;DHT22;619;51.472;6.628;2022-09-13T05:46:35;24.30;80.80
1259;DHT22;619;51.472;6.628;2022-09-13T05:49:04;24.30;80.10
1259;DHT22;619;51.472;6.628;2022-09-13T05:51:34;24.40;80.10
1259;DHT22;619;51.472;6.628;2022-09-13T05:54:00;24.40;80.10
1259;DHT22;619;51.472;6.628;2022-09-13T05:56:27;24.50;79.80
1259;DHT22;619;51.472;6.628;2022-09-13T05:58:55;24.50;79.60
1259;DHT22;619;51.472;6.628;2022-09-13T06:01:24;24.50;79.40
1259;DHT22;619;51.472;6.628;2022-09-13T06:03:55;24.60;79.50
1259;DHT22;619;51.472;6.628;2022-09-13T06:06:21;24.60;79.40
1259;DHT22;619;51.472;6.628;2022-09-13T06:08:56;24.70;79.50
1259;DHT22;619;51.472;6.628;2022-09-13T06:11:23;24.70;79.90
1259;DHT22;619;51.472;6.628;2022-09-13T06:13:54;24.80;80.00
1259;DHT22;619;51.472;6.628;2022-09-13T06:16:22;24.80;79.70
1259;DHT22;619;51.472;6.628;2022-09-13T06:18:47;24.80;79.40
1259;DHT22;619;51.472;6.628;2022-09-13T06:21:15;24.90;79.30
1259;DHT22;619;51.472;6.628;2022-09-13T06:23:47;24.90;79.20
1259;DHT22;619;51.472;6.628;2022-09-13T06:26:15;25.00;79.00
1259;DHT22;619;51.472;6.628;2022-09-13T06:28:41;25.10;78.80
1259;DHT22;619;51.472;6.628;2022-09-13T06:31:12;25.10;78.60
1259;DHT22;619;51.472;6.628;2022-09-13T06:33:41;25.20;78.60
1259;DHT22;619;51.472;6.628;2022-09-13T06:36:15;25.20;78.30
1259;DHT22;619;51.472;6.628;2022-09-13T06:38:45;25.30;78.00
1259;DHT22;619;51.472;6.628;2022-09-13T06:41:15;25.40;77.80
1259;DHT22;619;51.472;6.628;2022-09-13T06:43:43;25.50;77.60
1259;DHT22;619;51.472;6.628;2022-09-13T06:46:16;25.60;77.40
1259;DHT22;619;51.472;6.628;2022-09-13T06:48:43;25.60;77.20
1259;DHT22;619;51.472;6.628;2022-09-13T06:51:17;25.70;77.20
1259;DHT22;619;51.472;6.628;2022-09-13T06:53:44;25.80;76.80
1259;DHT22;619;51.472;6.628;2022-09-13T06:56:31;25.90;76.60
1259;DHT22;619;51.472;6.628;2022-09-13T06:59:01;26.00;76.30
1259;DHT22;619;51.472;6.628;2022-09-13T07:01:34;26.10;75.70
1259;DHT22;619;51.472;6.628;2022-09-13T07:04:05;26.20;75.20
1259;DHT22;619;51.472;6.628;2022-09-13T07:06:44;26.30;75.00
1259;DHT22;619;51.472;6.628;2022-09-13T07:09:18;26.40;74.60
1259;DHT22;619;51.472;6.628;2022-09-13T07:11:47;26.50;74.30
1259;DHT22;619;51.472;6.628;2022-09-13T07:14:15;26.60;74.00
1259;DHT22;619;51.472;6.628;2022-09-13T07:16:43;26.70;73.60
1259;DHT22;619;51.472;6.628;2022-09-13T07:19:19;26.70;73.20
1259;DHT22;619;51.472;6.628;2022-09-13T07:21:45;26.80;73.10
1259;DHT22;619;51.472;6.628;2022-09-13T07:24:15;26.90;72.80
1259;DHT22;619;51.472;6.628;2022-09-13T07:26:41;26.90;72.40
1259;DHT22;619;51.472;6.628;2022-09-13T07:29:10;26.90;72.20
1259;DHT22;619;51.472;6.628;2022-09-13T07:31:37;26.90;72.20
1259;DHT22;619;51.472;6.628;2022-09-13T07:34:11;26.90;72.10
1259;DHT22;619;51.472;6.628;2022-09-13T07:36:39;27.00;72.20
1259;DHT22;619;51.472;6.628;2022-09-13T07:39:07;27.00;72.30
1259;DHT22;619;51.472;6.628;2022-09-13T07:41:33;27.10;72.10
1259;DHT22;619;51.472;6.628;2022-09-13T07:44:00;27.20;72.00
1259;DHT22;619;51.472;6.628;2022-09-13T07:46:30;27.40;72.30
1259;DHT22;619;51.472;6.628;2022-09-13T07:48:59;27.50;71.70
1259;DHT22;619;51.472;6.628;2022-09-13T07:51:30;27.50;71.30
1259;DHT22;619;51.472;6.628;2022-09-13T07:53:58;27.60;70.90
1259;DHT22;619;51.472;6.628;2022-09-13T07:56:35;27.70;70.40
1259;DHT22;619;51.472;6.628;2022-09-13T07:59:09;27.80;70.10
1259;DHT22;619;51.472;6.628;2022-09-13T08:01:43;27.90;69.80
1259;DHT22;619;51.472;6.628;2022-09-13T08:04:12;28.00;69.50
1259;DHT22;619;51.472;6.628;2022-09-13T08:06:40;28.00;68.90
1259;DHT22;619;51.472;6.628;2022-09-13T08:09:07;28.10;68.60
1259;DHT22;619;51.472;6.628;2022-09-13T08:11:38;28.20;68.80
1259;DHT22;619;51.472;6.628;2022-09-13T08:14:05;28.30;68.30
1259;DHT22;619;51.472;6.628;2022-09-13T08:16:31;28.40;67.70
1259;DHT22;619;51.472;6.628;2022-09-13T08:19:03;28.50;67.30
1259;DHT22;619;51.472;6.628;2022-09-13T08:21:35;28.60;67.10
1259;DHT22;619;51.472;6.628;2022-09-13T08:24:01;28.60;67.40
1259;DHT22;619;51.472;6.628;2022-09-13T08:26:31;28.70;67.30
1259;DHT22;619;51.472;6.628;2022-09-13T08:29:01;28.80;66.40
1259;DHT22;619;51.472;6.628;2022-09-13T08:31:30;28.80;66.30
1259;DHT22;619;51.472;6.628;2022-09-13T08:33:58;28.90;66.20
1259;DHT22;619;51.472;6.628;2022-09-13T08:36:26;28.90;66.10
1259;DHT22;619;51.472;6.628;2022-09-13T08:38:54;28.90;66.30
1259;DHT22;619;51.472;6.628;2022-09-13T08:46:44;28.80;66.20
1259;DHT22;619;51.472;6.628;2022-09-13T08:49:25;28.80;66.50
1259;DHT22;619;51.472;6.628;2022-09-13T08:52:32;28.80;66.00
1259;DHT22;619;51.472;6.628;2022-09-13T08:55:07;28.90;66.30
1259;DHT22;619;51.472;6.628;2022-09-13T08:57:52;28.90;66.30
1259;DHT22;619;51.472;6.628;2022-09-13T09:00:20;28.90;66.30
1259;DHT22;619;51.472;6.628;2022-09-13T09:05:45;29.20;66.60
1259;DHT22;619;51.472;6.628;2022-09-13T09:08:29;29.20;66.60
1259;DHT22;619;51.472;6.628;2022-09-13T09:11:02;29.30;66.70
1259;DHT22;619;51.472;6.628;2022-09-13T09:13:35;29.30;66.40
1259;DHT22;619;51.472;6.628;2022-09-13T09:16:11;29.40;66.50
1259;DHT22;619;51.472;6.628;2022-09-13T09:18:43;29.50;66.30
1259;DHT22;619;51.472;6.628;2022-09-13T09:21:17;29.70;65.90
1259;DHT22;619;51.472;6.628;2022-09-13T09:23:51;29.80;65.30
1259;DHT22;619;51.472;6.628;2022-09-13T09:37:02;30.40;63.30
1259;DHT22;619;51.472;6.628;2022-09-13T09:39:30;30.50;63.00
1259;DHT22;619;51.472;6.628;2022-09-13T09:42:00;30.60;62.50
1259;DHT22;619;51.472;6.628;2022-09-13T09:44:29;30.60;62.20
1259;DHT22;619;51.472;6.628;2022-09-13T09:49:47;30.60;62.40
1259;DHT22;619;51.472;6.628;2022-09-13T09:52:45;30.60;63.00
1259;DHT22;619;51.472;6.628;2022-09-13T09:58:04;30.80;63.20
1259;DHT22;619;51.472;6.628;2022-09-13T10:00:35;31.00;62.70
1259;DHT22;619;51.472;6.628;2022-09-13T10:03:17;31.10;62.10
1259;DHT22;619;51.472;6.628;2022-09-13T10:05:43;31.10;61.00
1259;DHT22;619;51.472;6.628;2022-09-13T10:08:32;31.20;61.30
1259;DHT22;619;51.472;6.628;2022-09-13T10:11:02;31.40;61.80
1259;DHT22;619;51.472;6.628;2022-09-13T10:13:30;31.50;61.50
1259;DHT22;619;51.472;6.628;2022-09-13T10:18:27;31.60;61.00
1259;DHT22;619;51.472;6.628;2022-09-13T10:23:36;31.70;60.90
1259;DHT22;619;51.472;6.628;2022-09-13T10:28:40;31.70;60.30
1259;DHT22;619;51.472;6.628;2022-09-13T10:31:11;31.70;60.80
1259;DHT22;619;51.472;6.628;2022-09-13T10:33:45;31.70;61.20
1259;DHT22;619;51.472;6.628;2022-09-13T10:36:24;31.70;61.50
1259;DHT22;619;51.472;6.628;2022-09-13T10:41:29;31.90;61.30
1259;DHT22;619;51.472;6.628;2022-09-13T10:43:57;32.00;60.50
1259;DHT22;619;51.472;6.628;2022-09-13T10:46:27;32.10;60.30
1259;DHT22;619;51.472;6.628;2022-09-13T10:48:55;32.10;59.70
1259;DHT22;619;51.472;6.628;2022-09-13T10:51:35;32.20;59.90
1259;DHT22;619;51.472;6.628;2022-09-13T10:54:23;32.40;60.40
1259;DHT22;619;51.472;6.628;2022-09-13T10:56:50;32.50;60.00
1259;DHT22;619;51.472;6.628;2022-09-13T10:59:28;32.60;59.20
1259;DHT22;619;51.472;6.628;2022-09-13T11:10:22;33.00;58.80
1259;DHT22;619;51.472;6.628;2022-09-13T11:13:27;33.00;57.90
1259;DHT22;619;51.472;6.628;2022-09-13T11:26:56;33.00;57.80
1259;DHT22;619;51.472;6.628;2022-09-13T11:41:14;33.70;57.00
1259;DHT22;619;51.472;6.628;2022-09-13T11:43:55;34.00;56.80
1259;DHT22;619;51.472;6.628;2022-09-13T11:49:34;33.90;56.40
1259;DHT22;619;51.472;6.628;2022-09-13T11:57:20;33.60;56.00
1259;DHT22;619;51.472;6.628;2022-09-13T12:02:38;33.50;56.20
1259;DHT22;619;51.472;6.628;2022-09-13T12:05:21;33.50;56.10
1259;DHT22;619;51.472;6.628;2022-09-13T12:08:00;33.50;55.80
1259;DHT22;619;51.472;6.628;2022-09-13T12:13:03;33.30;56.10
1259;DHT22;619;51.472;6.628;2022-09-13T12:15:39;33.10;56.50
1259;DHT22;619;51.472;6.628;2022-09-13T12:18:19;33.00;56.90
1259;DHT22;619;51.472;6.628;2022-09-13T12:20:52;33.00;57.40
1259;DHT22;619;51.472;6.628;2022-09-13T12:23:31;33.10;57.70
1259;DHT22;619;51.472;6.628;2022-09-13T12:26:09;33.10;58.20
1259;DHT22;619;51.472;6.628;2022-09-13T12:28:57;33.20;58.40
1259;DHT22;619;51.472;6.628;2022-09-13T12:31:28;33.20;58.50
1259;DHT22;619;51.472;6.628;2022-09-13T12:33:55;33.40;58.20
1259;DHT22;619;51.472;6.628;2022-09-13T12:47:52;34.20;56.90
1259;DHT22;619;51.472;6.628;2022-09-13T12:50:44;34.30;55.70
